createdAt,value
2022-11-01T00:02:12.523Z,17.20
2022-11-01T00:04:40.943Z,17.20
2022-11-01T00:07:09.221Z,17.20
2022-11-01T00:09:37.461Z,17.20
2022-11-01T00:12:07.443Z,17.20
2022-11-01T00:14:35.662Z,17.20
2022-11-01T00:17:04.216Z,17.20
2022-11-01T00:19:32.540Z,17.30
2022-11-01T00:22:00.752Z,17.30
2022-11-01T00:24:31.082Z,17.40
2022-11-01T00:26:59.812Z,17.40
2022-11-01T00:29:29.671Z,17.50
2022-11-01T00:31:57.860Z,17.50
2022-11-01T00:34:26.570Z,17.60
2022-11-01T00:36:54.818Z,17.60
2022-11-01T00:39:27.314Z,17.70
2022-11-01T00:41:57.217Z,17.70
2022-11-01T00:44:25.449Z,17.70
2022-11-01T00:46:55.032Z,17.70
2022-11-01T00:49:23.192Z,17.80
2022-11-01T00:51:52.215Z,17.80
2022-11-01T00:54:20.460Z,17.80
2022-11-01T00:56:48.641Z,17.80
2022-11-01T00:59:16.841Z,17.90
2022-11-01T01:01:45.118Z,17.90
2022-11-01T01:04:14.876Z,17.90
2022-11-01T01:06:43.089Z,17.90
2022-11-01T01:09:12.631Z,17.90
2022-11-01T01:11:40.874Z,17.90
2022-11-01T01:14:09.109Z,17.90
2022-11-01T01:16:37.299Z,17.80
2022-11-01T01:19:05.595Z,17.70
2022-11-01T01:21:35.106Z,17.60
2022-11-01T01:24:03.326Z,17.50
2022-11-01T01:26:31.550Z,17.50
2022-11-01T01:29:00.636Z,17.50
2022-11-01T01:31:29.213Z,17.40
2022-11-01T01:33:59.044Z,17.30
2022-11-01T01:36:27.449Z,17.20
2022-11-01T01:38:57.038Z,17.20
2022-11-01T01:41:42.619Z,17.00
2022-11-01T01:45:02.560Z,16.80
2022-11-01T01:47:33.039Z,16.70
2022-11-01T01:50:09.707Z,16.50
2022-11-01T01:52:43.369Z,16.30
2022-11-01T01:55:15.927Z,16.20
2022-11-01T01:57:45.001Z,16.20
2022-11-01T02:00:14.581Z,16.20
2022-11-01T02:02:43.825Z,16.10
2022-11-01T02:05:18.404Z,16.10
2022-11-01T02:07:47.562Z,16.00
2022-11-01T02:10:17.974Z,16.00
2022-11-01T02:12:47.393Z,15.90
2022-11-01T02:15:17.241Z,15.80
2022-11-01T02:17:55.063Z,15.70
2022-11-01T02:20:43.338Z,15.60
2022-11-01T02:23:32.984Z,15.50
2022-11-01T02:26:20.473Z,15.50
2022-11-01T02:29:04.785Z,15.70
2022-11-01T02:32:05.045Z,15.80
2022-11-01T02:34:39.213Z,15.70
2022-11-01T02:37:15.929Z,15.70
2022-11-01T02:39:48.751Z,15.50
2022-11-01T02:42:23.117Z,15.40
2022-11-01T02:44:56.379Z,15.40
2022-11-01T02:47:28.790Z,15.20
2022-11-01T02:50:02.626Z,15.10
2022-11-01T02:52:34.074Z,15.00
2022-11-01T02:55:06.364Z,14.90
2022-11-01T02:57:38.393Z,14.70
2022-11-01T03:00:22.252Z,14.70
2022-11-01T03:02:53.884Z,14.60
2022-11-01T03:05:32.026Z,14.60
2022-11-01T03:08:03.831Z,14.60
2022-11-01T03:10:41.088Z,14.60
2022-11-01T03:13:29.030Z,14.50
2022-11-01T03:16:08.109Z,14.50
2022-11-01T03:18:39.713Z,14.50
2022-11-01T03:21:16.638Z,14.40
2022-11-01T03:23:50.959Z,14.30
2022-11-01T03:26:25.704Z,14.20
2022-11-01T03:28:58.071Z,14.10
2022-11-01T03:31:30.192Z,14.10
2022-11-01T03:34:01.711Z,14.00
2022-11-01T03:36:35.903Z,13.90
2022-11-01T03:39:08.095Z,14.00
2022-11-01T03:41:40.551Z,14.00
2022-11-01T03:44:10.312Z,14.00
2022-11-01T03:46:38.821Z,13.90
2022-11-01T03:49:07.046Z,13.90
2022-11-01T03:51:36.645Z,13.80
2022-11-01T03:54:06.568Z,13.80
2022-11-01T03:56:34.795Z,13.70
2022-11-01T03:59:03.014Z,13.70
2022-11-01T04:01:31.375Z,13.70
2022-11-01T04:03:59.680Z,13.70
2022-11-01T04:06:28.129Z,13.80
2022-11-01T04:08:58.748Z,13.70
2022-11-01T04:11:27.162Z,13.80
2022-11-01T04:14:16.455Z,13.80
2022-11-01T04:17:02.038Z,13.70
2022-11-01T04:19:47.596Z,13.60
2022-11-01T04:22:19.297Z,13.60
2022-11-01T04:24:51.631Z,13.60
2022-11-01T04:27:19.900Z,13.60
2022-11-01T04:29:48.101Z,13.60
2022-11-01T04:32:16.320Z,13.60
2022-11-01T04:34:44.825Z,13.50
2022-11-01T04:37:13.835Z,13.40
2022-11-01T04:39:42.087Z,13.40
2022-11-01T04:42:11.622Z,13.40
2022-11-01T04:44:39.822Z,13.40
2022-11-01T04:47:08.049Z,13.40
2022-11-01T04:49:36.296Z,13.40
2022-11-01T04:52:04.785Z,13.40
2022-11-01T04:54:33.635Z,13.60
2022-11-01T04:57:02.209Z,13.50
2022-11-01T04:59:31.828Z,13.50
2022-11-01T05:02:00.169Z,13.50
2022-11-01T05:04:28.535Z,13.50
2022-11-01T05:06:56.732Z,13.50
2022-11-01T05:09:24.943Z,13.40
2022-11-01T05:11:53.394Z,13.40
2022-11-01T05:14:21.648Z,13.40
2022-11-01T05:16:51.680Z,13.20
2022-11-01T05:19:19.935Z,13.10
2022-11-01T05:21:48.179Z,13.00
2022-11-01T05:24:16.514Z,13.00
2022-11-01T05:26:45.003Z,13.10
2022-11-01T05:29:24.511Z,13.00
2022-11-01T05:32:01.997Z,13.00
2022-11-01T05:34:30.300Z,13.00
2022-11-01T05:36:59.552Z,12.90
2022-11-01T05:39:27.773Z,12.90
2022-11-01T05:41:59.842Z,12.90
2022-11-01T05:44:31.084Z,12.90
2022-11-01T05:46:59.470Z,12.90
2022-11-01T05:49:29.067Z,12.90
2022-11-01T05:51:57.343Z,12.80
2022-11-01T05:54:25.645Z,12.80
2022-11-01T05:56:53.926Z,12.70
2022-11-01T05:59:22.105Z,12.70
2022-11-01T06:01:50.472Z,12.70
2022-11-01T06:04:18.958Z,12.60
2022-11-01T06:06:48.583Z,12.60
2022-11-01T06:09:16.816Z,12.60
2022-11-01T06:11:44.989Z,12.60
2022-11-01T06:14:13.272Z,12.60
2022-11-01T06:16:41.438Z,12.60
2022-11-01T06:19:10.526Z,12.50
2022-11-01T06:21:38.798Z,12.50
2022-11-01T06:24:12.102Z,12.50
2022-11-01T06:26:40.386Z,12.50
2022-11-01T06:29:08.745Z,12.50
2022-11-01T06:31:36.999Z,12.50
2022-11-01T06:34:05.263Z,12.40
2022-11-01T06:36:33.418Z,12.40
2022-11-01T06:39:01.608Z,12.40
2022-11-01T06:41:31.260Z,12.30
2022-11-01T06:44:00.055Z,12.30
2022-11-01T06:46:28.448Z,12.20
2022-11-01T06:48:56.707Z,12.30
2022-11-01T06:51:24.933Z,12.30
2022-11-01T06:53:53.128Z,12.30
2022-11-01T06:56:22.315Z,12.20
2022-11-01T06:58:52.332Z,12.20
2022-11-01T07:01:22.658Z,12.30
2022-11-01T07:03:52.038Z,12.20
2022-11-01T07:06:20.257Z,12.20
2022-11-01T07:08:48.508Z,12.20
2022-11-01T07:11:16.775Z,12.30
2022-11-01T07:13:45.165Z,12.20
2022-11-01T07:16:14.806Z,12.20
2022-11-01T07:18:46.140Z,12.20
2022-11-01T07:21:16.287Z,12.30
2022-11-01T07:23:44.759Z,12.30
2022-11-01T07:26:13.030Z,12.30
2022-11-01T07:28:41.309Z,12.30
2022-11-01T07:31:09.793Z,12.40
2022-11-01T07:33:39.670Z,12.40
2022-11-01T07:36:08.894Z,12.40
2022-11-01T07:38:37.572Z,12.40
2022-11-01T07:41:06.446Z,12.40
2022-11-01T07:43:35.931Z,12.50
2022-11-01T07:46:07.088Z,12.50
2022-11-01T07:48:36.991Z,12.60
2022-11-01T07:51:09.626Z,12.60
2022-11-01T07:53:37.940Z,12.60
2022-11-01T07:56:08.618Z,12.80
2022-11-01T07:58:36.983Z,12.80
2022-11-01T08:01:05.262Z,12.90
2022-11-01T08:03:33.560Z,13.00
2022-11-01T08:06:01.850Z,13.00
2022-11-01T08:08:31.555Z,13.10
2022-11-01T08:11:01.480Z,13.10
2022-11-01T08:13:30.239Z,13.10
2022-11-01T08:16:02.558Z,13.20
2022-11-01T08:18:31.152Z,13.20
2022-11-01T08:21:00.382Z,13.20
2022-11-01T08:23:28.689Z,13.20
2022-11-01T08:25:58.735Z,13.30
2022-11-01T08:28:29.769Z,13.40
2022-11-01T08:30:57.998Z,13.40
2022-11-01T08:33:26.453Z,13.50
2022-11-01T08:35:54.629Z,13.50
2022-11-01T08:38:22.827Z,13.50
2022-11-01T08:40:51.375Z,13.60
2022-11-01T08:43:21.172Z,13.60
2022-11-01T08:45:49.688Z,13.70
2022-11-01T08:48:17.975Z,13.70
2022-11-01T08:50:49.605Z,13.80
2022-11-01T08:53:18.480Z,13.90
2022-11-01T08:58:21.375Z,14.20
2022-11-01T09:00:49.699Z,14.40
2022-11-01T09:03:18.154Z,14.20
2022-11-01T09:05:46.358Z,14.20
2022-11-01T09:08:14.604Z,14.30
2022-11-01T09:10:42.903Z,14.30
2022-11-01T09:13:11.193Z,14.30
2022-11-01T09:15:40.904Z,14.40
2022-11-01T09:18:10.134Z,14.50
2022-11-01T09:20:39.401Z,14.60
2022-11-01T09:23:07.618Z,14.60
2022-11-01T09:25:37.162Z,14.60
2022-11-01T09:28:05.783Z,14.50
2022-11-01T09:30:34.078Z,14.60
2022-11-01T09:33:06.950Z,14.60
2022-11-01T09:35:36.017Z,14.70
2022-11-01T09:38:05.359Z,14.80
2022-11-01T09:40:44.117Z,14.90
2022-11-01T09:43:16.929Z,14.90
2022-11-01T09:45:45.307Z,15.00
2022-11-01T09:48:16.731Z,15.00
2022-11-01T09:50:45.473Z,15.00
2022-11-01T09:53:22.452Z,15.00
2022-11-01T09:55:59.018Z,15.10
2022-11-01T09:58:37.984Z,15.10
2022-11-01T10:01:21.216Z,15.30
2022-11-01T10:04:01.423Z,15.40
2022-11-01T10:06:35.921Z,15.50
2022-11-01T10:09:15.009Z,15.50
2022-11-01T10:11:59.136Z,15.40
2022-11-01T10:14:49.196Z,15.50
2022-11-01T10:17:24.965Z,15.60
2022-11-01T10:22:32.653Z,15.80
2022-11-01T10:25:05.770Z,15.80
2022-11-01T10:27:44.225Z,15.90
2022-11-01T10:30:15.646Z,16.10
2022-11-01T10:32:48.815Z,15.90
2022-11-01T10:35:22.174Z,16.00
2022-11-01T10:38:11.229Z,16.20
2022-11-01T10:40:50.476Z,16.40
2022-11-01T10:43:22.020Z,16.40
2022-11-01T10:45:54.094Z,16.50
2022-11-01T10:48:30.534Z,16.50
2022-11-01T10:51:03.781Z,16.60
2022-11-01T10:53:36.745Z,16.60
2022-11-01T10:56:09.189Z,16.70
2022-11-01T10:58:42.740Z,16.70
2022-11-01T11:01:17.116Z,16.50
2022-11-01T11:03:47.006Z,16.60
2022-11-01T11:06:17.434Z,16.60
2022-11-01T11:08:50.009Z,16.60
2022-11-01T11:11:22.403Z,16.50
2022-11-01T11:13:54.125Z,16.70
2022-11-01T11:16:30.722Z,16.70
2022-11-01T11:19:04.514Z,16.80
2022-11-01T11:21:37.410Z,16.90
2022-11-01T11:24:06.032Z,16.80
2022-11-01T11:29:26.642Z,16.70
2022-11-01T11:31:57.342Z,16.90
2022-11-01T11:34:29.735Z,17.00
2022-11-01T11:37:01.397Z,17.00
2022-11-01T11:39:31.491Z,17.00
2022-11-01T11:42:14.119Z,16.90
2022-11-01T11:44:45.481Z,17.00
2022-11-01T11:47:24.439Z,17.20
2022-11-01T11:49:54.178Z,17.20
2022-11-01T11:52:28.850Z,17.20
2022-11-01T11:54:57.759Z,17.30
2022-11-01T11:57:30.055Z,17.30
2022-11-01T12:00:01.562Z,17.30
2022-11-01T12:02:34.730Z,17.30
2022-11-01T12:05:05.002Z,17.40
2022-11-01T12:07:37.734Z,17.70
2022-11-01T12:10:08.267Z,17.70
2022-11-01T12:12:48.140Z,17.70
2022-11-01T12:15:29.115Z,17.70
2022-11-01T12:17:58.038Z,17.80
2022-11-01T12:20:27.773Z,17.80
2022-11-01T12:23:07.053Z,17.80
2022-11-01T12:25:37.432Z,17.70
2022-11-01T12:28:14.137Z,17.70
2022-11-01T12:30:44.271Z,17.70
2022-11-01T12:33:22.707Z,17.90
2022-11-01T12:35:55.376Z,18.00
2022-11-01T12:38:44.800Z,18.10
2022-11-01T12:41:25.288Z,18.10
2022-11-01T12:44:07.149Z,17.90
2022-11-01T12:46:39.461Z,18.20
2022-11-01T12:49:14.234Z,18.20
2022-11-01T12:51:48.661Z,18.30
2022-11-01T12:54:23.368Z,18.30
2022-11-01T12:56:51.598Z,18.20
2022-11-01T12:59:28.367Z,18.10
2022-11-01T13:02:03.673Z,18.20
2022-11-01T13:04:37.309Z,18.40
2022-11-01T13:07:22.716Z,18.40
2022-11-01T13:10:02.941Z,18.40
2022-11-01T13:12:41.755Z,18.20
2022-11-01T13:15:17.749Z,18.30
2022-11-01T13:17:54.019Z,18.30
2022-11-01T13:20:30.274Z,18.10
2022-11-01T13:23:12.333Z,18.00
2022-11-01T13:25:46.348Z,18.20
2022-11-01T13:28:26.110Z,18.20
2022-11-01T13:31:03.708Z,18.20
2022-11-01T13:33:37.656Z,17.90
2022-11-01T13:36:14.691Z,17.90
2022-11-01T13:38:49.302Z,18.20
2022-11-01T13:41:32.091Z,18.20
2022-11-01T13:44:07.356Z,18.40
2022-11-01T13:47:03.861Z,18.40
2022-11-01T13:50:11.061Z,18.10
2022-11-01T13:52:45.372Z,17.80
2022-11-01T13:55:21.990Z,17.60
2022-11-01T13:57:54.182Z,17.70
2022-11-01T14:00:41.288Z,17.80
2022-11-01T14:03:22.712Z,17.50
2022-11-01T14:06:14.081Z,17.00
2022-11-01T14:08:44.030Z,16.80
2022-11-01T14:11:14.177Z,16.80
2022-11-01T14:13:45.832Z,16.90
2022-11-01T14:16:23.836Z,17.10
2022-11-01T14:19:21.642Z,17.10
2022-11-01T14:21:54.181Z,17.00
2022-11-01T14:24:29.444Z,16.80
2022-11-01T14:27:19.270Z,16.70
2022-11-01T14:29:52.359Z,16.70
2022-11-01T14:32:23.430Z,16.70
2022-11-01T14:35:01.895Z,16.80
2022-11-01T14:37:36.626Z,16.80
2022-11-01T14:40:24.374Z,16.80
2022-11-01T14:42:55.550Z,16.80
2022-11-01T14:45:38.033Z,16.80
2022-11-01T14:48:16.442Z,16.80
2022-11-01T14:50:51.744Z,16.80
2022-11-01T14:53:26.523Z,16.70
2022-11-01T14:56:14.378Z,16.60
2022-11-01T14:58:42.655Z,16.60
2022-11-01T15:01:15.218Z,16.50
2022-11-01T15:03:46.478Z,16.50
2022-11-01T15:06:24.208Z,16.50
2022-11-01T15:08:53.030Z,16.40
2022-11-01T15:11:21.288Z,16.40
2022-11-01T15:13:53.391Z,16.40
2022-11-01T15:16:26.766Z,16.40
2022-11-01T15:18:58.252Z,16.40
2022-11-01T15:21:30.882Z,16.40
2022-11-01T15:24:00.243Z,16.40
2022-11-01T15:26:32.439Z,16.30
2022-11-01T15:29:02.902Z,16.30
2022-11-01T15:31:34.362Z,16.30
2022-11-01T15:34:04.851Z,16.30
2022-11-01T15:36:36.655Z,16.30
2022-11-01T15:39:17.270Z,16.20
2022-11-01T15:41:45.863Z,16.20
2022-11-01T15:44:21.057Z,16.20
2022-11-01T15:46:52.113Z,16.20
2022-11-01T15:49:23.285Z,16.20
2022-11-01T15:51:54.156Z,16.10
2022-11-01T15:54:34.244Z,16.10
2022-11-01T15:57:06.352Z,16.10
2022-11-01T15:59:42.554Z,16.10
2022-11-01T16:02:20.664Z,16.10
2022-11-01T16:04:52.616Z,16.10
2022-11-01T16:07:22.956Z,16.10
2022-11-01T16:09:55.062Z,16.00
2022-11-01T16:12:25.861Z,16.00
2022-11-01T16:14:59.204Z,16.10
2022-11-01T16:17:35.397Z,16.10
2022-11-01T16:20:05.987Z,16.10
2022-11-01T16:22:37.722Z,16.10
2022-11-01T16:25:21.821Z,16.00
2022-11-01T16:27:55.296Z,16.10
2022-11-01T16:30:48.617Z,16.10
2022-11-01T16:33:27.095Z,16.10
2022-11-01T16:35:57.241Z,16.10
2022-11-01T16:38:28.052Z,16.00
2022-11-01T16:40:58.660Z,15.90
2022-11-01T16:43:28.931Z,15.80
2022-11-01T16:45:58.275Z,15.50
2022-11-01T16:48:30.087Z,15.30
2022-11-01T16:51:00.343Z,15.00
2022-11-01T16:53:30.410Z,14.80
2022-11-01T16:56:34.363Z,14.70
2022-11-01T16:58:58.196Z,14.40
2022-11-01T17:01:35.134Z,14.10
2022-11-01T17:04:06.037Z,13.80
2022-11-01T17:06:39.025Z,13.60
2022-11-01T17:09:13.798Z,13.50
2022-11-01T17:11:46.377Z,13.30
2022-11-01T17:14:18.405Z,13.20
2022-11-01T17:16:48.107Z,13.10
2022-11-01T17:19:24.217Z,13.10
2022-11-01T17:21:53.836Z,13.10
2022-11-01T17:24:25.698Z,13.20
2022-11-01T17:26:56.030Z,13.20
2022-11-01T17:29:24.374Z,13.20
2022-11-01T17:31:52.683Z,13.30
2022-11-01T17:34:22.423Z,13.20
2022-11-01T17:36:51.665Z,13.30
2022-11-01T17:39:20.185Z,13.30
2022-11-01T17:41:48.498Z,13.30
2022-11-01T17:44:17.585Z,13.30
2022-11-01T17:46:45.888Z,13.30
2022-11-01T17:49:15.778Z,13.30
2022-11-01T17:51:50.551Z,13.20
2022-11-01T17:54:22.895Z,13.20
2022-11-01T17:56:52.077Z,13.20
2022-11-01T17:59:20.469Z,13.10
2022-11-01T18:01:48.895Z,13.10
2022-11-01T18:04:18.810Z,13.10
2022-11-01T18:06:48.770Z,13.10
2022-11-01T18:09:22.824Z,13.00
2022-11-01T18:12:00.755Z,13.00
2022-11-01T18:14:49.030Z,13.00
2022-11-01T18:17:46.818Z,13.00
2022-11-01T18:20:31.634Z,12.90
2022-11-01T18:23:06.361Z,12.90
2022-11-01T18:25:41.433Z,13.00
2022-11-01T18:28:14.290Z,13.00
2022-11-01T18:30:44.784Z,13.10
2022-11-01T18:33:23.247Z,13.10
2022-11-01T18:35:56.676Z,13.20
2022-11-01T18:38:32.310Z,13.20
2022-11-01T18:41:02.128Z,13.20
2022-11-01T18:43:33.082Z,13.20
2022-11-01T18:46:23.919Z,13.20
2022-11-01T18:49:00.470Z,13.20
2022-11-01T18:51:31.367Z,13.20
2022-11-01T18:54:18.817Z,13.30
2022-11-01T18:56:52.680Z,13.30
2022-11-01T18:59:29.308Z,13.30
2022-11-01T19:02:01.723Z,13.30
2022-11-01T19:04:35.616Z,13.40
2022-11-01T19:07:12.687Z,13.40
2022-11-01T19:09:44.110Z,13.30
2022-11-01T19:12:20.655Z,13.30
2022-11-01T19:14:59.764Z,13.20
2022-11-01T19:17:30.778Z,13.10
2022-11-01T19:19:59.900Z,13.00
2022-11-01T19:22:36.729Z,13.00
2022-11-01T19:25:20.942Z,12.90
2022-11-01T19:27:53.035Z,12.80
2022-11-01T19:30:25.185Z,12.80
2022-11-01T19:32:58.667Z,12.70
2022-11-01T19:35:27.165Z,12.70
2022-11-01T19:37:56.600Z,12.70
2022-11-01T19:40:34.115Z,12.60
2022-11-01T19:43:13.017Z,12.60
2022-11-01T19:45:47.049Z,12.50
2022-11-01T19:48:17.778Z,12.40
2022-11-01T19:50:48.549Z,12.40
2022-11-01T19:53:22.176Z,12.30
2022-11-01T19:55:59.588Z,12.30
2022-11-01T19:58:42.247Z,12.20
2022-11-01T20:01:36.043Z,12.30
2022-11-01T20:04:11.764Z,12.30
2022-11-01T20:06:46.713Z,12.20
2022-11-01T20:09:20.407Z,12.20
2022-11-01T20:11:50.292Z,12.30
2022-11-01T20:14:18.514Z,12.20
2022-11-01T20:16:47.872Z,12.30
2022-11-01T20:19:17.795Z,12.30
2022-11-01T20:21:46.429Z,12.20
2022-11-01T20:24:15.578Z,12.30
2022-11-01T20:26:44.359Z,12.30
2022-11-01T20:29:14.741Z,12.30
2022-11-01T20:31:43.012Z,12.30
2022-11-01T20:34:11.337Z,12.30
2022-11-01T20:36:39.594Z,12.30
2022-11-01T20:39:10.357Z,12.30
2022-11-01T20:41:41.437Z,12.30
2022-11-01T20:44:09.648Z,12.30
2022-11-01T20:46:39.375Z,12.30
2022-11-01T20:49:08.117Z,12.30
2022-11-01T20:51:36.438Z,12.30
2022-11-01T20:54:04.991Z,12.30
2022-11-01T20:56:33.396Z,12.30
2022-11-01T21:01:34.879Z,12.30
2022-11-01T21:04:10.747Z,12.30
2022-11-01T21:06:39.625Z,12.30
2022-11-01T21:09:26.066Z,12.30
2022-11-01T21:11:56.115Z,12.30
2022-11-01T21:14:28.438Z,12.30
2022-11-01T21:16:59.059Z,12.20
2022-11-01T21:19:28.769Z,12.20
2022-11-01T21:21:58.673Z,12.30
2022-11-01T21:24:35.157Z,12.30
2022-11-01T21:30:14.659Z,12.30
2022-11-01T21:32:45.415Z,12.30
2022-11-01T21:35:41.238Z,12.40
2022-11-01T21:38:35.214Z,12.40
2022-11-01T21:41:27.063Z,12.40
2022-11-01T21:43:56.077Z,12.40
2022-11-01T21:46:26.633Z,12.40
2022-11-01T21:49:00.607Z,12.50
2022-11-01T21:51:32.496Z,12.50
2022-11-01T21:54:03.521Z,12.50
2022-11-01T21:56:32.958Z,12.60
2022-11-01T21:59:01.218Z,12.60
2022-11-01T22:01:30.841Z,12.60
2022-11-01T22:03:59.220Z,12.60
2022-11-01T22:06:29.638Z,12.70
2022-11-01T22:08:59.313Z,12.70
2022-11-01T22:11:32.616Z,12.70
2022-11-01T22:14:01.288Z,12.70
2022-11-01T22:16:29.662Z,12.70
2022-11-01T22:18:57.910Z,12.70
2022-11-01T22:21:26.435Z,12.60
2022-11-01T22:23:54.752Z,12.60
2022-11-01T22:26:25.230Z,12.60
2022-11-01T22:28:54.097Z,12.50
2022-11-01T22:31:22.976Z,12.50
2022-11-01T22:33:53.623Z,12.60
2022-11-01T22:36:25.381Z,12.60
2022-11-01T22:38:56.919Z,12.60
2022-11-01T22:41:33.175Z,12.60
2022-11-01T22:44:05.457Z,12.70
2022-11-01T22:46:44.246Z,12.90
2022-11-01T22:49:17.060Z,12.90
2022-11-01T22:51:46.917Z,12.80
2022-11-01T22:54:26.628Z,12.80
2022-11-01T22:57:01.600Z,12.80
2022-11-01T22:59:34.255Z,12.70
2022-11-01T23:02:22.974Z,12.70
2022-11-01T23:04:55.522Z,12.70
2022-11-01T23:07:32.540Z,12.60
2022-11-01T23:10:05.451Z,12.60
2022-11-01T23:12:55.134Z,12.50
2022-11-01T23:15:29.040Z,12.50
2022-11-01T23:18:03.681Z,12.40
2022-11-01T23:20:31.946Z,12.50
2022-11-01T23:23:01.591Z,12.50
2022-11-01T23:25:32.252Z,12.40
2022-11-01T23:28:01.879Z,12.40
2022-11-01T23:30:30.168Z,12.40
2022-11-01T23:32:59.252Z,12.30
2022-11-01T23:35:27.880Z,12.40
2022-11-01T23:37:59.254Z,12.30
2022-11-01T23:40:33.877Z,12.30
2022-11-01T23:43:03.758Z,12.30
2022-11-01T23:45:35.062Z,12.40
2022-11-01T23:48:03.930Z,12.40
2022-11-01T23:50:35.083Z,12.50
2022-11-01T23:53:05.944Z,12.50
2022-11-01T23:55:39.296Z,12.50
2022-11-01T23:58:13.561Z,12.50
